sensor_id;sensor_type;location;lat;lon;timestamp;pressure;altitude;pressure_sealevel;temperature;humidity
3122;BME280;1571;52.524;14.104;2023-04-19T00:00:53;102154.81;;;5.64;85.30
3122;BME280;1571;52.524;14.104;2023-04-19T00:03:23;102156.81;;;5.53;84.69
3122;BME280;1571;52.524;14.104;2023-04-19T00:05:52;102149.63;;;5.61;84.23
3122;BME280;1571;52.524;14.104;2023-04-19T00:08:20;102156.03;;;5.48;84.00
3122;BME280;1571;52.524;14.104;2023-04-19T00:10:50;102141.75;;;5.60;82.80
3122;BME280;1571;52.524;14.104;2023-04-19T00:13:19;102147.19;;;5.52;82.33
3122;BME280;1571;52.524;14.104;2023-04-19T00:15:47;102153.31;;;5.51;82.09
3122;BME280;1571;52.524;14.104;2023-04-19T00:18:16;102146.34;;;5.50;81.60
3122;BME280;1571;52.524;14.104;2023-04-19T00:20:44;102139.31;;;5.49;81.59
3122;BME280;1571;52.524;14.104;2023-04-19T00:23:12;102146.44;;;5.44;81.40
3122;BME280;1571;52.524;14.104;2023-04-19T00:25:40;102140.41;;;5.39;81.36
3122;BME280;1571;52.524;14.104;2023-04-19T00:28:10;102135.06;;;5.42;79.64
3122;BME280;1571;52.524;14.104;2023-04-19T00:30:38;102131.72;;;5.34;79.21
3122;BME280;1571;52.524;14.104;2023-04-19T00:33:06;102137.75;;;5.40;78.29
3122;BME280;1571;52.524;14.104;2023-04-19T00:35:39;102133.50;;;5.32;78.05
3122;BME280;1571;52.524;14.104;2023-04-19T00:38:08;102136.31;;;5.22;77.93
3122;BME280;1571;52.524;14.104;2023-04-19T00:40:36;102130.97;;;5.27;77.12
3122;BME280;1571;52.524;14.104;2023-04-19T00:43:05;102133.75;;;5.18;76.28
3122;BME280;1571;52.524;14.104;2023-04-19T00:45:35;102131.94;;;5.21;75.98
3122;BME280;1571;52.524;14.104;2023-04-19T00:48:03;102142.53;;;5.17;75.83
3122;BME280;1571;52.524;14.104;2023-04-19T00:50:32;102134.66;;;5.15;76.07
3122;BME280;1571;52.524;14.104;2023-04-19T00:53:02;102133.03;;;5.10;75.96
3122;BME280;1571;52.524;14.104;2023-04-19T00:55:30;102139.47;;;4.92;76.29
3122;BME280;1571;52.524;14.104;2023-04-19T00:57:58;102139.47;;;4.92;76.76
3122;BME280;1571;52.524;14.104;2023-04-19T01:00:27;102148.13;;;5.00;76.73
3122;BME280;1571;52.524;14.104;2023-04-19T01:02:56;102128.91;;;4.93;76.81
3122;BME280;1571;52.524;14.104;2023-04-19T01:05:25;102144.09;;;4.77;76.95
3122;BME280;1571;52.524;14.104;2023-04-19T01:07:53;102150.28;;;4.73;77.23
3122;BME280;1571;52.524;14.104;2023-04-19T01:10:22;102149.38;;;4.76;77.04
3122;BME280;1571;52.524;14.104;2023-04-19T01:12:50;102151.00;;;4.85;76.59
3122;BME280;1571;52.524;14.104;2023-04-19T01:15:18;102156.53;;;4.66;76.52
3122;BME280;1571;52.524;14.104;2023-04-19T01:17:48;102145.25;;;4.59;76.21
3122;BME280;1571;52.524;14.104;2023-04-19T01:20:18;102147.94;;;4.55;76.72
3122;BME280;1571;52.524;14.104;2023-04-19T01:22:48;102147.19;;;4.45;77.00
3122;BME280;1571;52.524;14.104;2023-04-19T01:25:16;102149.09;;;4.35;77.23
3122;BME280;1571;52.524;14.104;2023-04-19T01:27:44;102145.50;;;4.41;77.09
3122;BME280;1571;52.524;14.104;2023-04-19T01:30:13;102147.31;;;4.36;77.43
3122;BME280;1571;52.524;14.104;2023-04-19T01:32:41;102138.72;;;4.25;77.53
3122;BME280;1571;52.524;14.104;2023-04-19T01:35:09;102138.78;;;4.18;77.84
3122;BME280;1571;52.524;14.104;2023-04-19T01:37:38;102144.94;;;4.19;77.62
3122;BME280;1571;52.524;14.104;2023-04-19T01:40:11;102139.63;;;4.22;77.67
3122;BME280;1571;52.524;14.104;2023-04-19T01:42:40;102142.31;;;4.19;77.66
3122;BME280;1571;52.524;14.104;2023-04-19T01:45:08;102145.22;;;3.96;78.45
3122;BME280;1571;52.524;14.104;2023-04-19T01:47:37;102138.97;;;4.05;78.63
3122;BME280;1571;52.524;14.104;2023-04-19T01:50:07;102133.00;;;3.93;78.75
3122;BME280;1571;52.524;14.104;2023-04-19T01:52:35;102124.13;;;4.01;78.55
3122;BME280;1571;52.524;14.104;2023-04-19T01:55:04;102125.00;;;4.03;78.76
3122;BME280;1571;52.524;14.104;2023-04-19T01:57:34;102125.03;;;4.00;78.90
3122;BME280;1571;52.524;14.104;2023-04-19T02:00:03;102126.81;;;3.96;79.04
3122;BME280;1571;52.524;14.104;2023-04-19T02:02:40;102134.06;;;3.79;79.42
3122;BME280;1571;52.524;14.104;2023-04-19T02:05:09;102125.41;;;3.70;79.79
3122;BME280;1571;52.524;14.104;2023-04-19T02:07:37;102118.19;;;3.88;79.71
3122;BME280;1571;52.524;14.104;2023-04-19T02:10:08;102123.50;;;3.82;79.92
3122;BME280;1571;52.524;14.104;2023-04-19T02:12:39;102128.00;;;3.72;80.11
3122;BME280;1571;52.524;14.104;2023-04-19T02:15:08;102117.63;;;3.60;80.43
3122;BME280;1571;52.524;14.104;2023-04-19T02:17:37;102126.47;;;3.52;80.91
3122;BME280;1571;52.524;14.104;2023-04-19T02:20:07;102124.00;;;3.39;81.65
3122;BME280;1571;52.524;14.104;2023-04-19T02:22:35;102127.44;;;3.44;82.32
3122;BME280;1571;52.524;14.104;2023-04-19T02:25:04;102131.22;;;3.15;83.14
3122;BME280;1571;52.524;14.104;2023-04-19T02:27:32;102120.53;;;3.37;83.34
3122;BME280;1571;52.524;14.104;2023-04-19T02:30:02;102126.81;;;3.19;83.72
3122;BME280;1571;52.524;14.104;2023-04-19T02:32:32;102117.16;;;3.24;83.93
3122;BME280;1571;52.524;14.104;2023-04-19T02:35:01;102119.22;;;2.91;84.73
3122;BME280;1571;52.524;14.104;2023-04-19T02:37:29;102106.81;;;3.07;84.88
3122;BME280;1571;52.524;14.104;2023-04-19T02:39:58;102107.59;;;3.17;85.39
3122;BME280;1571;52.524;14.104;2023-04-19T02:42:28;102112.97;;;3.04;85.48
3122;BME280;1571;52.524;14.104;2023-04-19T02:44:56;102108.72;;;2.91;86.01
3122;BME280;1571;52.524;14.104;2023-04-19T02:47:26;102107.66;;;3.10;86.08
3122;BME280;1571;52.524;14.104;2023-04-19T02:49:54;102107.78;;;2.97;86.41
3122;BME280;1571;52.524;14.104;2023-04-19T02:52:22;102107.81;;;2.95;86.79
3122;BME280;1571;52.524;14.104;2023-04-19T02:54:50;102105.16;;;2.97;87.29
3122;BME280;1571;52.524;14.104;2023-04-19T02:57:19;102107.16;;;2.68;87.67
3122;BME280;1571;52.524;14.104;2023-04-19T02:59:48;102099.91;;;2.97;87.85
3122;BME280;1571;52.524;14.104;2023-04-19T03:02:16;102084.22;;;2.92;87.85
3122;BME280;1571;52.524;14.104;2023-04-19T03:04:46;102098.41;;;2.69;88.28
3122;BME280;1571;52.524;14.104;2023-04-19T03:07:14;102087.81;;;2.79;88.65
3122;BME280;1571;52.524;14.104;2023-04-19T03:09:43;102094.09;;;2.62;88.92
3122;BME280;1571;52.524;14.104;2023-04-19T03:12:11;102085.41;;;2.56;89.14
3122;BME280;1571;52.524;14.104;2023-04-19T03:14:41;102089.78;;;2.54;89.63
3122;BME280;1571;52.524;14.104;2023-04-19T03:17:09;102073.00;;;2.75;89.78
3122;BME280;1571;52.524;14.104;2023-04-19T03:19:38;102077.41;;;2.71;89.97
3122;BME280;1571;52.524;14.104;2023-04-19T03:22:07;102073.97;;;2.66;90.26
3122;BME280;1571;52.524;14.104;2023-04-19T03:24:36;102074.00;;;2.58;90.23
3122;BME280;1571;52.524;14.104;2023-04-19T03:27:15;102059.16;;;2.60;90.73
3122;BME280;1571;52.524;14.104;2023-04-19T03:29:47;102069.72;;;2.51;91.11
3122;BME280;1571;52.524;14.104;2023-04-19T03:32:15;102075.00;;;2.45;91.79
3122;BME280;1571;52.524;14.104;2023-04-19T03:34:43;102050.41;;;2.58;92.18
3122;BME280;1571;52.524;14.104;2023-04-19T03:37:16;102055.63;;;2.64;92.71
3122;BME280;1571;52.524;14.104;2023-04-19T03:39:45;102043.44;;;2.57;92.83
3122;BME280;1571;52.524;14.104;2023-04-19T03:42:19;102038.25;;;2.51;93.22
3122;BME280;1571;52.524;14.104;2023-04-19T03:44:57;102056.72;;;2.34;94.70
3122;BME280;1571;52.524;14.104;2023-04-19T03:47:27;102026.94;;;2.46;95.04
3122;BME280;1571;52.524;14.104;2023-04-19T03:49:57;102040.16;;;2.32;95.73
3122;BME280;1571;52.524;14.104;2023-04-19T03:52:27;102031.25;;;2.53;96.61
3122;BME280;1571;52.524;14.104;2023-04-19T03:54:55;102030.38;;;2.53;96.82
3122;BME280;1571;52.524;14.104;2023-04-19T03:57:35;102030.34;;;2.54;97.16
3122;BME280;1571;52.524;14.104;2023-04-19T04:00:11;102029.34;;;2.67;97.54
3122;BME280;1571;52.524;14.104;2023-04-19T04:02:42;102019.75;;;2.68;97.79
3122;BME280;1571;52.524;14.104;2023-04-19T04:05:12;102018.91;;;2.64;98.01
3122;BME280;1571;52.524;14.104;2023-04-19T04:07:42;102018.78;;;2.77;98.65
3122;BME280;1571;52.524;14.104;2023-04-19T04:10:11;102022.38;;;2.66;98.93
3122;BME280;1571;52.524;14.104;2023-04-19T04:12:42;102011.09;;;2.57;99.51
3122;BME280;1571;52.524;14.104;2023-04-19T04:15:15;102004.00;;;2.71;99.78
3122;BME280;1571;52.524;14.104;2023-04-19T04:17:49;102002.41;;;2.55;100.00
3122;BME280;1571;52.524;14.104;2023-04-19T04:20:19;101995.34;;;2.57;100.00
3122;BME280;1571;52.524;14.104;2023-04-19T04:22:50;101992.69;;;2.64;100.00
3122;BME280;1571;52.524;14.104;2023-04-19T04:25:20;101979.44;;;2.78;100.00
3122;BME280;1571;52.524;14.104;2023-04-19T04:27:49;101982.06;;;2.80;100.00
3122;BME280;1571;52.524;14.104;2023-04-19T04:30:20;101993.31;;;2.88;100.00
3122;BME280;1571;52.524;14.104;2023-04-19T04:32:52;101985.44;;;2.91;100.00
3122;BME280;1571;52.524;14.104;2023-04-19T04:35:24;101991.72;;;2.73;100.00
3122;BME280;1571;52.524;14.104;2023-04-19T04:38:05;101984.59;;;2.86;100.00
3122;BME280;1571;52.524;14.104;2023-04-19T04:40:50;101984.34;;;3.09;100.00
3122;BME280;1571;52.524;14.104;2023-04-19T04:43:20;101979.91;;;3.14;100.00
3122;BME280;1571;52.524;14.104;2023-04-19T04:45:49;101968.28;;;3.35;100.00
3122;BME280;1571;52.524;14.104;2023-04-19T04:48:18;101964.78;;;3.36;100.00
3122;BME280;1571;52.524;14.104;2023-04-19T04:50:46;101969.09;;;3.40;100.00
3122;BME280;1571;52.524;14.104;2023-04-19T04:53:15;101958.81;;;3.25;100.00
3122;BME280;1571;52.524;14.104;2023-04-19T04:55:45;101954.97;;;3.49;100.00
3122;BME280;1571;52.524;14.104;2023-04-19T04:58:14;101961.81;;;3.61;100.00
3122;BME280;1571;52.524;14.104;2023-04-19T05:01:08;101962.69;;;3.63;100.00
3122;BME280;1571;52.524;14.104;2023-04-19T05:03:39;101969.53;;;3.71;99.65
3122;BME280;1571;52.524;14.104;2023-04-19T05:06:13;101958.13;;;3.74;99.23
3122;BME280;1571;52.524;14.104;2023-04-19T05:08:43;101959.72;;;3.84;98.85
3122;BME280;1571;52.524;14.104;2023-04-19T05:11:20;101961.41;;;3.88;98.25
3122;BME280;1571;52.524;14.104;2023-04-19T05:13:48;101956.16;;;3.88;97.92
3122;BME280;1571;52.524;14.104;2023-04-19T05:16:16;101962.97;;;4.02;97.87
3122;BME280;1571;52.524;14.104;2023-04-19T05:18:46;101957.66;;;4.05;97.27
3122;BME280;1571;52.524;14.104;2023-04-19T05:21:15;101953.25;;;4.05;96.94
3122;BME280;1571;52.524;14.104;2023-04-19T05:23:44;101952.09;;;4.23;96.70
3122;BME280;1571;52.524;14.104;2023-04-19T05:26:14;101948.75;;;4.13;96.61
3122;BME280;1571;52.524;14.104;2023-04-19T05:28:44;101951.53;;;4.04;96.31
3122;BME280;1571;52.524;14.104;2023-04-19T05:31:20;101952.38;;;4.06;95.64
3122;BME280;1571;52.524;14.104;2023-04-19T05:34:05;101944.94;;;4.31;95.59
3122;BME280;1571;52.524;14.104;2023-04-19T05:36:33;101943.94;;;4.38;94.96
3122;BME280;1571;52.524;14.104;2023-04-19T05:39:03;101941.16;;;4.48;94.45
3122;BME280;1571;52.524;14.104;2023-04-19T05:41:31;101939.38;;;4.50;93.86
3122;BME280;1571;52.524;14.104;2023-04-19T05:44:00;101933.91;;;4.62;93.68
3122;BME280;1571;52.524;14.104;2023-04-19T05:46:28;101938.53;;;4.48;93.20
3122;BME280;1571;52.524;14.104;2023-04-19T05:48:57;101937.53;;;4.55;93.09
3122;BME280;1571;52.524;14.104;2023-04-19T05:51:25;101943.31;;;4.74;92.62
3122;BME280;1571;52.524;14.104;2023-04-19T05:54:09;101926.38;;;4.89;92.22
3122;BME280;1571;52.524;14.104;2023-04-19T05:56:39;101942.28;;;4.83;91.45
3122;BME280;1571;52.524;14.104;2023-04-19T05:59:08;101932.69;;;4.80;91.43
3122;BME280;1571;52.524;14.104;2023-04-19T06:01:37;101929.59;;;5.03;91.05
3122;BME280;1571;52.524;14.104;2023-04-19T06:04:05;101926.53;;;5.23;90.63
3122;BME280;1571;52.524;14.104;2023-04-19T06:06:34;101922.44;;;5.08;90.70
3122;BME280;1571;52.524;14.104;2023-04-19T06:09:04;101917.28;;;5.04;90.29
3122;BME280;1571;52.524;14.104;2023-04-19T06:11:35;101917.00;;;5.17;89.90
3122;BME280;1571;52.524;14.104;2023-04-19T06:14:15;101912.50;;;5.22;89.57
3122;BME280;1571;52.524;14.104;2023-04-19T06:16:44;101915.47;;;5.07;89.28
3122;BME280;1571;52.524;14.104;2023-04-19T06:19:12;101907.72;;;5.40;89.40
3122;BME280;1571;52.524;14.104;2023-04-19T06:21:41;101899.28;;;5.26;88.85
3122;BME280;1571;52.524;14.104;2023-04-19T06:24:09;101904.25;;;5.38;88.58
3122;BME280;1571;52.524;14.104;2023-04-19T06:26:38;101901.97;;;5.61;87.88
3122;BME280;1571;52.524;14.104;2023-04-19T06:29:07;101912.66;;;5.55;87.50
3122;BME280;1571;52.524;14.104;2023-04-19T06:31:35;101882.22;;;5.81;87.43
3122;BME280;1571;52.524;14.104;2023-04-19T06:34:03;101891.41;;;5.63;86.55
3122;BME280;1571;52.524;14.104;2023-04-19T06:36:31;101899.13;;;5.71;86.66
3122;BME280;1571;52.524;14.104;2023-04-19T06:38:59;101890.16;;;5.79;86.26
3122;BME280;1571;52.524;14.104;2023-04-19T06:41:28;101894.59;;;5.76;85.99
3122;BME280;1571;52.524;14.104;2023-04-19T06:43:57;101881.41;;;6.15;85.56
3122;BME280;1571;52.524;14.104;2023-04-19T06:46:26;101882.34;;;6.45;85.32
3122;BME280;1571;52.524;14.104;2023-04-19T06:48:54;101875.03;;;6.55;84.59
3122;BME280;1571;52.524;14.104;2023-04-19T06:51:23;101871.00;;;6.74;84.21
3122;BME280;1571;52.524;14.104;2023-04-19T06:53:51;101866.50;;;6.46;82.79
3122;BME280;1571;52.524;14.104;2023-04-19T06:56:38;101865.97;;;6.65;82.69
3122;BME280;1571;52.524;14.104;2023-04-19T06:59:08;101872.88;;;6.38;82.73
3122;BME280;1571;52.524;14.104;2023-04-19T07:01:37;101862.16;;;6.75;83.00
3122;BME280;1571;52.524;14.104;2023-04-19T07:04:05;101847.00;;;6.82;81.95
3122;BME280;1571;52.524;14.104;2023-04-19T07:06:34;101843.88;;;6.99;81.20
3122;BME280;1571;52.524;14.104;2023-04-19T07:09:03;101844.50;;;6.77;80.97
3122;BME280;1571;52.524;14.104;2023-04-19T07:11:32;101852.38;;;6.79;80.09
3122;BME280;1571;52.524;14.104;2023-04-19T07:14:00;101833.31;;;7.27;79.95
3122;BME280;1571;52.524;14.104;2023-04-19T07:16:30;101839.44;;;6.99;79.48
3122;BME280;1571;52.524;14.104;2023-04-19T07:18:58;101837.00;;;7.49;79.19
3122;BME280;1571;52.524;14.104;2023-04-19T07:21:26;101838.09;;;7.44;78.32
3122;BME280;1571;52.524;14.104;2023-04-19T07:23:59;101840.13;;;7.06;78.14
3122;BME280;1571;52.524;14.104;2023-04-19T07:26:27;101839.09;;;7.40;78.39
3122;BME280;1571;52.524;14.104;2023-04-19T07:28:55;101833.25;;;7.83;77.78
3122;BME280;1571;52.524;14.104;2023-04-19T07:31:24;101821.50;;;7.92;76.90
3122;BME280;1571;52.524;14.104;2023-04-19T07:33:54;101842.03;;;8.10;76.61
3122;BME280;1571;52.524;14.104;2023-04-19T07:36:22;101836.53;;;7.91;75.92
3122;BME280;1571;52.524;14.104;2023-04-19T07:38:50;101842.03;;;8.10;75.24
3122;BME280;1571;52.524;14.104;2023-04-19T07:41:19;101833.44;;;7.24;75.55
3122;BME280;1571;52.524;14.104;2023-04-19T07:43:48;101844.47;;;7.08;76.95
3122;BME280;1571;52.524;14.104;2023-04-19T07:46:16;101833.66;;;6.86;77.57
3122;BME280;1571;52.524;14.104;2023-04-19T07:48:44;101829.97;;;6.94;77.56
3122;BME280;1571;52.524;14.104;2023-04-19T07:51:15;101833.13;;;7.05;77.66
3122;BME280;1571;52.524;14.104;2023-04-19T07:53:45;101829.97;;;7.77;76.56
3122;BME280;1571;52.524;14.104;2023-04-19T07:56:13;101820.81;;;7.87;75.74
3122;BME280;1571;52.524;14.104;2023-04-19T07:58:42;101815.75;;;8.06;75.13
3122;BME280;1571;52.524;14.104;2023-04-19T08:01:17;101811.38;;;8.30;74.62
3122;BME280;1571;52.524;14.104;2023-04-19T08:03:45;101830.34;;;7.66;73.88
3122;BME280;1571;52.524;14.104;2023-04-19T08:06:15;101809.34;;;8.13;74.01
3122;BME280;1571;52.524;14.104;2023-04-19T08:08:44;101819.28;;;8.06;73.54
3122;BME280;1571;52.524;14.104;2023-04-19T08:11:12;101805.25;;;8.04;73.68
3122;BME280;1571;52.524;14.104;2023-04-19T08:13:41;101802.72;;;8.26;73.34
3122;BME280;1571;52.524;14.104;2023-04-19T08:16:26;101811.72;;;8.21;72.99
3122;BME280;1571;52.524;14.104;2023-04-19T08:19:15;101796.59;;;8.49;72.98
3122;BME280;1571;52.524;14.104;2023-04-19T08:21:45;101781.06;;;8.87;71.92
3122;BME280;1571;52.524;14.104;2023-04-19T08:24:13;101782.16;;;8.82;71.14
3122;BME280;1571;52.524;14.104;2023-04-19T08:26:42;101786.81;;;8.75;71.64
3122;BME280;1571;52.524;14.104;2023-04-19T08:29:10;101797.13;;;9.05;71.10
3122;BME280;1571;52.524;14.104;2023-04-19T08:31:42;101782.19;;;9.26;70.23
3122;BME280;1571;52.524;14.104;2023-04-19T08:34:10;101771.72;;;9.01;68.50
3122;BME280;1571;52.524;14.104;2023-04-19T08:36:39;101774.78;;;9.34;68.17
3122;BME280;1571;52.524;14.104;2023-04-19T08:39:23;101771.66;;;9.24;68.07
3122;BME280;1571;52.524;14.104;2023-04-19T08:42:02;101767.19;;;9.47;67.33
3122;BME280;1571;52.524;14.104;2023-04-19T08:44:36;101765.41;;;9.25;66.47
3122;BME280;1571;52.524;14.104;2023-04-19T08:47:25;101771.50;;;9.27;67.14
3122;BME280;1571;52.524;14.104;2023-04-19T08:50:00;101783.28;;;9.20;67.37
3122;BME280;1571;52.524;14.104;2023-04-19T08:52:32;101780.81;;;8.21;66.91
3122;BME280;1571;52.524;14.104;2023-04-19T08:55:11;101791.84;;;8.34;67.68
3122;BME280;1571;52.524;14.104;2023-04-19T08:57:40;101792.50;;;8.16;67.83
3122;BME280;1571;52.524;14.104;2023-04-19T09:00:09;101788.16;;;8.38;67.81
3122;BME280;1571;52.524;14.104;2023-04-19T09:02:45;101798.31;;;8.50;68.10
3122;BME280;1571;52.524;14.104;2023-04-19T09:05:16;101793.56;;;8.35;67.83
3122;BME280;1571;52.524;14.104;2023-04-19T09:07:45;101810.06;;;8.43;68.08
3122;BME280;1571;52.524;14.104;2023-04-19T09:10:15;101775.81;;;8.62;67.70
3122;BME280;1571;52.524;14.104;2023-04-19T09:12:59;101788.44;;;8.79;66.90
3122;BME280;1571;52.524;14.104;2023-04-19T09:15:36;101781.53;;;8.51;66.40
3122;BME280;1571;52.524;14.104;2023-04-19T09:18:06;101766.34;;;8.57;67.05
3122;BME280;1571;52.524;14.104;2023-04-19T09:20:36;101768.00;;;8.83;67.52
3122;BME280;1571;52.524;14.104;2023-04-19T09:23:06;101751.13;;;8.85;65.97
3122;BME280;1571;52.524;14.104;2023-04-19T09:25:36;101756.44;;;8.85;66.23
3122;BME280;1571;52.524;14.104;2023-04-19T09:28:24;101754.94;;;9.44;66.94
3122;BME280;1571;52.524;14.104;2023-04-19T09:30:53;101742.56;;;9.65;65.70
3122;BME280;1571;52.524;14.104;2023-04-19T09:33:41;101737.50;;;9.59;64.97
3122;BME280;1571;52.524;14.104;2023-04-19T09:36:25;101740.72;;;9.67;65.75
3122;BME280;1571;52.524;14.104;2023-04-19T09:38:54;101736.03;;;9.52;64.83
3122;BME280;1571;52.524;14.104;2023-04-19T09:41:23;101734.53;;;10.08;65.76
3122;BME280;1571;52.524;14.104;2023-04-19T09:43:52;101721.50;;;10.22;64.64
3122;BME280;1571;52.524;14.104;2023-04-19T09:46:30;101708.06;;;10.46;63.62
3122;BME280;1571;52.524;14.104;2023-04-19T09:49:16;101703.03;;;10.77;63.95
3122;BME280;1571;52.524;14.104;2023-04-19T09:52:04;101716.81;;;10.67;63.16
3122;BME280;1571;52.524;14.104;2023-04-19T09:54:32;101712.28;;;10.10;62.35
3122;BME280;1571;52.524;14.104;2023-04-19T09:57:02;101709.19;;;10.40;62.82
3122;BME280;1571;52.524;14.104;2023-04-19T09:59:30;101708.50;;;10.36;62.27
3122;BME280;1571;52.524;14.104;2023-04-19T10:01:59;101690.84;;;10.35;61.73
3122;BME280;1571;52.524;14.104;2023-04-19T10:04:28;101689.56;;;10.63;62.28
3122;BME280;1571;52.524;14.104;2023-04-19T10:07:16;101683.81;;;10.72;61.73
3122;BME280;1571;52.524;14.104;2023-04-19T10:09:57;101685.63;;;10.72;61.26
3122;BME280;1571;52.524;14.104;2023-04-19T10:12:31;101695.91;;;10.21;61.84
3122;BME280;1571;52.524;14.104;2023-04-19T10:15:03;101704.72;;;10.21;62.13
3122;BME280;1571;52.524;14.104;2023-04-19T10:17:33;101692.94;;;10.08;61.63
3122;BME280;1571;52.524;14.104;2023-04-19T10:20:05;101706.34;;;10.05;61.93
3122;BME280;1571;52.524;14.104;2023-04-19T10:22:35;101694.56;;;10.11;61.57
3122;BME280;1571;52.524;14.104;2023-04-19T10:25:09;101695.75;;;9.85;61.46
3122;BME280;1571;52.524;14.104;2023-04-19T10:27:40;101691.50;;;10.01;61.90
3122;BME280;1571;52.524;14.104;2023-04-19T10:30:16;101688.94;;;10.18;61.66
3122;BME280;1571;52.524;14.104;2023-04-19T10:32:46;101686.00;;;10.25;62.71
3122;BME280;1571;52.524;14.104;2023-04-19T10:35:19;101688.94;;;10.18;61.79
3122;BME280;1571;52.524;14.104;2023-04-19T10:38:06;101688.56;;;10.07;61.64
3122;BME280;1571;52.524;14.104;2023-04-19T10:40:53;101680.75;;;10.23;61.38
3122;BME280;1571;52.524;14.104;2023-04-19T10:43:24;101673.81;;;10.20;60.90
3122;BME280;1571;52.524;14.104;2023-04-19T10:45:52;101666.97;;;10.15;60.68
3122;BME280;1571;52.524;14.104;2023-04-19T10:48:31;101668.94;;;10.11;60.79
3122;BME280;1571;52.524;14.104;2023-04-19T10:51:01;101654.66;;;10.14;60.72
3122;BME280;1571;52.524;14.104;2023-04-19T10:53:45;101667.03;;;10.34;61.33
3122;BME280;1571;52.524;14.104;2023-04-19T10:56:15;101654.50;;;9.98;60.64
3122;BME280;1571;52.524;14.104;2023-04-19T11:01:51;101658.47;;;9.88;61.08
3122;BME280;1571;52.524;14.104;2023-04-19T11:04:22;101672.69;;;9.87;61.54
3122;BME280;1571;52.524;14.104;2023-04-19T11:06:58;101649.72;;;9.86;60.16
3122;BME280;1571;52.524;14.104;2023-04-19T11:09:30;101652.38;;;9.86;60.47
3122;BME280;1571;52.524;14.104;2023-04-19T11:12:01;101659.06;;;9.94;60.64
3122;BME280;1571;52.524;14.104;2023-04-19T11:14:32;101646.59;;;9.96;60.87
3122;BME280;1571;52.524;14.104;2023-04-19T11:17:13;101653.19;;;9.88;60.93
3122;BME280;1571;52.524;14.104;2023-04-19T11:19:43;101658.59;;;10.05;61.67
3122;BME280;1571;52.524;14.104;2023-04-19T11:22:11;101659.94;;;9.95;62.34
3122;BME280;1571;52.524;14.104;2023-04-19T11:24:44;101663.78;;;9.88;62.89
3122;BME280;1571;52.524;14.104;2023-04-19T11:27:14;101663.00;;;9.86;62.48
3122;BME280;1571;52.524;14.104;2023-04-19T11:29:42;101661.59;;;9.77;62.38
3122;BME280;1571;52.524;14.104;2023-04-19T11:32:12;101661.22;;;9.86;63.69
3122;BME280;1571;52.524;14.104;2023-04-19T11:34:40;101652.28;;;9.89;62.98
3122;BME280;1571;52.524;14.104;2023-04-19T11:37:08;101662.09;;;9.87;62.61
3122;BME280;1571;52.524;14.104;2023-04-19T11:39:44;101654.03;;;9.88;61.38
3122;BME280;1571;52.524;14.104;2023-04-19T11:42:17;101647.22;;;9.83;61.21
3122;BME280;1571;52.524;14.104;2023-04-19T11:44:50;101642.31;;;9.94;60.84
3122;BME280;1571;52.524;14.104;2023-04-19T11:47:20;101632.94;;;10.25;60.97
3122;BME280;1571;52.524;14.104;2023-04-19T11:49:48;101625.66;;;10.66;60.04
3122;BME280;1571;52.524;14.104;2023-04-19T11:52:21;101641.03;;;10.59;61.50
3122;BME280;1571;52.524;14.104;2023-04-19T11:54:50;101631.88;;;10.29;59.62
3122;BME280;1571;52.524;14.104;2023-04-19T11:57:36;101635.69;;;9.84;59.94
3122;BME280;1571;52.524;14.104;2023-04-19T12:00:09;101636.97;;;9.54;60.48
3122;BME280;1571;52.524;14.104;2023-04-19T12:02:42;101643.06;;;9.56;60.39
3122;BME280;1571;52.524;14.104;2023-04-19T12:05:13;101629.41;;;9.45;60.80
3122;BME280;1571;52.524;14.104;2023-04-19T12:08:02;101637.91;;;9.53;61.45
3122;BME280;1571;52.524;14.104;2023-04-19T12:10:30;101633.06;;;9.63;61.26
3122;BME280;1571;52.524;14.104;2023-04-19T12:12:59;101623.50;;;9.79;61.23
3122;BME280;1571;52.524;14.104;2023-04-19T12:15:40;101615.63;;;9.78;60.40
3122;BME280;1571;52.524;14.104;2023-04-19T12:18:10;101616.28;;;9.63;62.13
3122;BME280;1571;52.524;14.104;2023-04-19T12:20:43;101653.69;;;8.93;66.37
3122;BME280;1571;52.524;14.104;2023-04-19T12:23:12;101644.50;;;8.80;66.27
3122;BME280;1571;52.524;14.104;2023-04-19T12:25:42;101652.81;;;8.93;67.62
3122;BME280;1571;52.524;14.104;2023-04-19T12:28:13;101635.69;;;9.02;66.28
3122;BME280;1571;52.524;14.104;2023-04-19T12:30:41;101640.44;;;8.93;66.83
3122;BME280;1571;52.524;14.104;2023-04-19T12:33:11;101639.94;;;9.06;67.71
3122;BME280;1571;52.524;14.104;2023-04-19T12:35:39;101639.91;;;8.85;68.44
3122;BME280;1571;52.524;14.104;2023-04-19T12:38:08;101637.91;;;8.46;70.66
3122;BME280;1571;52.524;14.104;2023-04-19T12:40:37;101639.19;;;8.12;73.76
3122;BME280;1571;52.524;14.104;2023-04-19T12:43:05;101637.44;;;8.13;76.30
3122;BME280;1571;52.524;14.104;2023-04-19T12:45:34;101650.59;;;7.91;77.31
3122;BME280;1571;52.524;14.104;2023-04-19T12:48:02;101637.00;;;7.77;78.40
3122;BME280;1571;52.524;14.104;2023-04-19T12:50:32;101633.44;;;7.78;79.26
3122;BME280;1571;52.524;14.104;2023-04-19T12:53:01;101636.09;;;8.01;79.50
3122;BME280;1571;52.524;14.104;2023-04-19T12:55:29;101639.25;;;7.87;79.32
3122;BME280;1571;52.524;14.104;2023-04-19T12:57:57;101625.41;;;8.04;78.83
3122;BME280;1571;52.524;14.104;2023-04-19T13:00:26;101648.75;;;7.93;78.19
3122;BME280;1571;52.524;14.104;2023-04-19T13:02:56;101639.59;;;7.53;79.27
3122;BME280;1571;52.524;14.104;2023-04-19T13:05:24;101651.34;;;7.69;80.46
3122;BME280;1571;52.524;14.104;2023-04-19T13:07:54;101649.31;;;7.78;82.05
3122;BME280;1571;52.524;14.104;2023-04-19T13:10:22;101642.94;;;7.58;81.22
3122;BME280;1571;52.524;14.104;2023-04-19T13:12:50;101641.56;;;7.23;82.41
3122;BME280;1571;52.524;14.104;2023-04-19T13:15:18;101631.31;;;7.39;81.17
3122;BME280;1571;52.524;14.104;2023-04-19T13:17:46;101624.63;;;7.28;83.12
3122;BME280;1571;52.524;14.104;2023-04-19T13:20:15;101621.16;;;7.26;87.47
3122;BME280;1571;52.524;14.104;2023-04-19T13:22:44;101623.22;;;7.18;89.27
3122;BME280;1571;52.524;14.104;2023-04-19T13:25:13;101618.69;;;6.68;91.42
3122;BME280;1571;52.524;14.104;2023-04-19T13:27:41;101620.56;;;6.65;94.81
3122;BME280;1571;52.524;14.104;2023-04-19T13:30:10;101608.72;;;6.78;96.53
3122;BME280;1571;52.524;14.104;2023-04-19T13:32:38;101582.19;;;6.81;98.59